sensor_id;sensor_type;location;lat;lon;timestamp;pressure;altitude;pressure_sealevel;temperature;humidity
68873;BME280;55907;50.806;12.882;2023-01-25T00:00:00;992.2;;;0.6;86.7
68873;BME280;55907;50.806;12.882;2023-01-25T00:03:02;992.2;;;0.6;86.7
68873;BME280;55907;50.806;12.882;2023-01-25T00:06:04;992.2;;;0.6;86.2
68873;BME280;55907;50.806;12.882;2023-01-25T00:09:05;992.1;;;0.6;86.0
68873;BME280;55907;50.806;12.882;2023-01-25T00:12:07;992.1;;;0.6;86.4
68873;BME280;55907;50.806;12.882;2023-01-25T00:15:09;992.1;;;0.6;86.6
68873;BME280;55907;50.806;12.882;2023-01-25T00:18:10;992.1;;;0.6;86.6
68873;BME280;55907;50.806;12.882;2023-01-25T00:21:12;992.1;;;0.6;86.7
68873;BME280;55907;50.806;12.882;2023-01-25T00:24:13;992.1;;;0.6;86.4
68873;BME280;55907;50.806;12.882;2023-01-25T00:27:15;992.0;;;0.6;86.5
68873;BME280;55907;50.806;12.882;2023-01-25T00:30:17;991.9;;;0.5;85.9
68873;BME280;55907;50.806;12.882;2023-01-25T00:33:32;992.0;;;0.5;86.3
68873;BME280;55907;50.806;12.882;2023-01-25T00:36:27;991.9;;;0.5;86.5
68873;BME280;55907;50.806;12.882;2023-01-25T00:39:22;992.0;;;0.5;85.6
68873;BME280;55907;50.806;12.882;2023-01-25T00:42:22;992.0;;;0.5;85.7
68873;BME280;55907;50.806;12.882;2023-01-25T00:45:24;992.0;;;0.5;86.3
68873;BME280;55907;50.806;12.882;2023-01-25T00:48:25;992.0;;;0.5;86.3
68873;BME280;55907;50.806;12.882;2023-01-25T00:51:27;992.0;;;0.6;85.9
68873;BME280;55907;50.806;12.882;2023-01-25T00:54:29;992.0;;;0.6;86.0
68873;BME280;55907;50.806;12.882;2023-01-25T00:57:30;992.0;;;0.6;85.9
68873;BME280;55907;50.806;12.882;2023-01-25T01:00:32;992.0;;;0.7;85.7
68873;BME280;55907;50.806;12.882;2023-01-25T01:03:33;991.9;;;0.8;86.1
68873;BME280;55907;50.806;12.882;2023-01-25T01:06:36;992.0;;;0.9;85.8
68873;BME280;55907;50.806;12.882;2023-01-25T01:09:37;992.0;;;0.8;85.8
68873;BME280;55907;50.806;12.882;2023-01-25T01:12:38;992.0;;;0.8;86.2
68873;BME280;55907;50.806;12.882;2023-01-25T01:15:40;991.9;;;0.8;86.3
68873;BME280;55907;50.806;12.882;2023-01-25T01:18:43;991.9;;;0.8;86.6
68873;BME280;55907;50.806;12.882;2023-01-25T01:21:43;991.9;;;0.8;86.6
68873;BME280;55907;50.806;12.882;2023-01-25T01:24:46;991.9;;;0.8;86.6
68873;BME280;55907;50.806;12.882;2023-01-25T01:27:46;991.9;;;0.8;86.6
68873;BME280;55907;50.806;12.882;2023-01-25T01:30:48;991.9;;;0.8;86.7
68873;BME280;55907;50.806;12.882;2023-01-25T01:33:50;991.8;;;0.8;86.5
68873;BME280;55907;50.806;12.882;2023-01-25T01:36:51;991.8;;;0.9;86.3
68873;BME280;55907;50.806;12.882;2023-01-25T01:39:52;991.8;;;0.9;86.3
68873;BME280;55907;50.806;12.882;2023-01-25T01:45:57;991.7;;;0.9;86.4
68873;BME280;55907;50.806;12.882;2023-01-25T01:48:59;991.7;;;0.9;86.6
68873;BME280;55907;50.806;12.882;2023-01-25T01:52:00;991.7;;;0.9;86.6
68873;BME280;55907;50.806;12.882;2023-01-25T01:55:02;991.7;;;0.9;86.2
68873;BME280;55907;50.806;12.882;2023-01-25T01:58:03;991.8;;;0.9;86.3
68873;BME280;55907;50.806;12.882;2023-01-25T02:01:03;991.7;;;0.9;86.5
68873;BME280;55907;50.806;12.882;2023-01-25T02:04:05;991.7;;;0.9;86.6
68873;BME280;55907;50.806;12.882;2023-01-25T02:07:10;991.6;;;0.9;86.7
68873;BME280;55907;50.806;12.882;2023-01-25T02:10:10;991.5;;;0.9;86.1
68873;BME280;55907;50.806;12.882;2023-01-25T02:13:10;991.4;;;0.9;85.9
68873;BME280;55907;50.806;12.882;2023-01-25T02:16:15;991.4;;;1.0;85.8
68873;BME280;55907;50.806;12.882;2023-01-25T02:19:20;991.4;;;1.0;86.2
68873;BME280;55907;50.806;12.882;2023-01-25T02:22:15;991.4;;;1.0;86.6
68873;BME280;55907;50.806;12.882;2023-01-25T02:25:16;991.3;;;1.0;86.5
68873;BME280;55907;50.806;12.882;2023-01-25T02:28:20;991.2;;;1.0;86.7
68873;BME280;55907;50.806;12.882;2023-01-25T02:31:19;991.2;;;1.0;86.5
68873;BME280;55907;50.806;12.882;2023-01-25T02:34:20;991.2;;;1.0;86.6
68873;BME280;55907;50.806;12.882;2023-01-25T02:37:22;991.1;;;1.0;86.0
68873;BME280;55907;50.806;12.882;2023-01-25T02:40:23;991.1;;;0.9;86.6
68873;BME280;55907;50.806;12.882;2023-01-25T02:43:28;991.1;;;0.9;87.6
68873;BME280;55907;50.806;12.882;2023-01-25T02:46:28;991.1;;;0.9;87.2
68873;BME280;55907;50.806;12.882;2023-01-25T02:49:28;991.1;;;1.0;87.1
68873;BME280;55907;50.806;12.882;2023-01-25T02:52:30;991.1;;;1.0;87.0
68873;BME280;55907;50.806;12.882;2023-01-25T02:55:31;991.0;;;1.0;87.2
68873;BME280;55907;50.806;12.882;2023-01-25T02:58:33;991.0;;;1.0;87.4
68873;BME280;55907;50.806;12.882;2023-01-25T03:01:36;991.0;;;1.1;86.8
68873;BME280;55907;50.806;12.882;2023-01-25T03:04:36;990.9;;;1.1;86.6
68873;BME280;55907;50.806;12.882;2023-01-25T03:07:38;990.9;;;1.1;86.7
68873;BME280;55907;50.806;12.882;2023-01-25T03:10:39;990.8;;;1.1;86.7
68873;BME280;55907;50.806;12.882;2023-01-25T03:13:41;990.8;;;1.2;86.8
68873;BME280;55907;50.806;12.882;2023-01-25T03:16:42;990.8;;;1.2;86.6
68873;BME280;55907;50.806;12.882;2023-01-25T03:19:44;990.7;;;1.2;86.5
68873;BME280;55907;50.806;12.882;2023-01-25T03:22:45;990.6;;;1.2;86.6
68873;BME280;55907;50.806;12.882;2023-01-25T03:25:47;990.6;;;1.2;87.0
68873;BME280;55907;50.806;12.882;2023-01-25T03:28:48;990.6;;;1.1;87.2
68873;BME280;55907;50.806;12.882;2023-01-25T03:31:50;990.6;;;1.1;87.2
68873;BME280;55907;50.806;12.882;2023-01-25T03:34:52;990.6;;;1.1;87.1
68873;BME280;55907;50.806;12.882;2023-01-25T03:37:53;990.5;;;1.1;87.0
68873;BME280;55907;50.806;12.882;2023-01-25T03:40:55;990.6;;;1.2;86.8
68873;BME280;55907;50.806;12.882;2023-01-25T03:42:19;unavailable;;;unavailable;unavailable
68873;BME280;55907;50.806;12.882;2023-01-25T03:42:29;unavailable;;;unavailable;unavailable
68873;BME280;55907;50.806;12.882;2023-01-25T03:43:56;990.5;;;1.2;86.7
68873;BME280;55907;50.806;12.882;2023-01-25T03:46:58;990.4;;;1.2;86.6
68873;BME280;55907;50.806;12.882;2023-01-25T03:49:59;990.4;;;1.3;86.4
68873;BME280;55907;50.806;12.882;2023-01-25T03:53:01;990.4;;;1.2;86.7
68873;BME280;55907;50.806;12.882;2023-01-25T03:56:05;990.4;;;1.2;87.0
68873;BME280;55907;50.806;12.882;2023-01-25T04:02:06;990.4;;;1.1;87.4
68873;BME280;55907;50.806;12.882;2023-01-25T04:05:07;990.4;;;1.1;87.7
68873;BME280;55907;50.806;12.882;2023-01-25T04:08:09;990.3;;;1.1;87.7
68873;BME280;55907;50.806;12.882;2023-01-25T04:11:10;990.3;;;1.1;87.9
68873;BME280;55907;50.806;12.882;2023-01-25T04:14:12;990.2;;;1.2;87.5
68873;BME280;55907;50.806;12.882;2023-01-25T04:23:17;990.2;;;1.2;87.2
68873;BME280;55907;50.806;12.882;2023-01-25T04:26:18;990.2;;;1.2;86.9
68873;BME280;55907;50.806;12.882;2023-01-25T04:29:20;990.3;;;1.2;86.7
68873;BME280;55907;50.806;12.882;2023-01-25T04:32:21;990.2;;;1.2;86.7
68873;BME280;55907;50.806;12.882;2023-01-25T04:35:23;990.2;;;1.2;86.8
68873;BME280;55907;50.806;12.882;2023-01-25T04:38:25;990.2;;;1.2;86.7
68873;BME280;55907;50.806;12.882;2023-01-25T04:41:26;990.2;;;1.2;86.6
68873;BME280;55907;50.806;12.882;2023-01-25T04:44:27;990.2;;;1.2;86.6
68873;BME280;55907;50.806;12.882;2023-01-25T04:47:29;990.2;;;1.2;86.6
68873;BME280;55907;50.806;12.882;2023-01-25T04:50:31;990.2;;;1.2;86.7
68873;BME280;55907;50.806;12.882;2023-01-25T04:53:35;990.2;;;1.3;86.4
68873;BME280;55907;50.806;12.882;2023-01-25T04:56:34;990.2;;;1.3;86.5
68873;BME280;55907;50.806;12.882;2023-01-25T04:59:35;990.2;;;1.3;86.5
68873;BME280;55907;50.806;12.882;2023-01-25T05:02:37;990.2;;;1.4;86.5
68873;BME280;55907;50.806;12.882;2023-01-25T05:05:44;990.2;;;1.4;86.4
68873;BME280;55907;50.806;12.882;2023-01-25T05:08:40;990.1;;;1.4;86.4
68873;BME280;55907;50.806;12.882;2023-01-25T05:11:42;990.2;;;1.4;86.4
68873;BME280;55907;50.806;12.882;2023-01-25T05:14:43;990.1;;;1.4;86.6
68873;BME280;55907;50.806;12.882;2023-01-25T05:17:45;990.2;;;1.5;86.5
68873;BME280;55907;50.806;12.882;2023-01-25T05:20:46;990.1;;;1.5;86.2
68873;BME280;55907;50.806;12.882;2023-01-25T05:23:48;990.1;;;1.5;86.6
68873;BME280;55907;50.806;12.882;2023-01-25T05:26:49;990.1;;;1.4;86.7
68873;BME280;55907;50.806;12.882;2023-01-25T05:29:51;990.0;;;1.4;86.6
68873;BME280;55907;50.806;12.882;2023-01-25T05:32:53;990.0;;;1.4;86.9
68873;BME280;55907;50.806;12.882;2023-01-25T05:35:54;990.0;;;1.3;87.1
68873;BME280;55907;50.806;12.882;2023-01-25T05:38:56;989.9;;;1.4;86.9
68873;BME280;55907;50.806;12.882;2023-01-25T05:41:57;989.9;;;1.3;87.1
68873;BME280;55907;50.806;12.882;2023-01-25T05:44:59;989.9;;;1.4;86.8
68873;BME280;55907;50.806;12.882;2023-01-25T05:48:00;989.9;;;1.4;86.5
68873;BME280;55907;50.806;12.882;2023-01-25T05:51:02;989.9;;;1.4;87.0
68873;BME280;55907;50.806;12.882;2023-01-25T05:57:05;989.8;;;1.4;86.8
68873;BME280;55907;50.806;12.882;2023-01-25T06:00:08;989.9;;;1.4;86.7
68873;BME280;55907;50.806;12.882;2023-01-25T06:03:08;989.9;;;1.3;86.7
68873;BME280;55907;50.806;12.882;2023-01-25T06:06:10;989.9;;;1.3;86.8
68873;BME280;55907;50.806;12.882;2023-01-25T06:09:12;989.9;;;1.3;86.7
68873;BME280;55907;50.806;12.882;2023-01-25T06:12:13;989.9;;;1.4;86.4
68873;BME280;55907;50.806;12.882;2023-01-25T06:15:15;989.9;;;1.4;86.3
68873;BME280;55907;50.806;12.882;2023-01-25T06:18:16;989.9;;;1.4;86.1
68873;BME280;55907;50.806;12.882;2023-01-25T06:21:18;989.9;;;1.4;86.2
68873;BME280;55907;50.806;12.882;2023-01-25T06:24:19;989.9;;;1.4;86.4
68873;BME280;55907;50.806;12.882;2023-01-25T06:27:21;989.9;;;1.4;86.6
68873;BME280;55907;50.806;12.882;2023-01-25T06:30:22;989.9;;;1.4;86.5
68873;BME280;55907;50.806;12.882;2023-01-25T06:33:25;989.9;;;1.4;86.5
68873;BME280;55907;50.806;12.882;2023-01-25T06:36:25;989.9;;;1.4;86.3
68873;BME280;55907;50.806;12.882;2023-01-25T06:39:27;989.9;;;1.4;86.1
68873;BME280;55907;50.806;12.882;2023-01-25T06:42:29;989.9;;;1.3;86.1
68873;BME280;55907;50.806;12.882;2023-01-25T06:45:30;989.9;;;1.4;86.1
68873;BME280;55907;50.806;12.882;2023-01-25T06:48:33;989.9;;;1.4;86.6
68873;BME280;55907;50.806;12.882;2023-01-25T06:51:33;989.8;;;1.4;86.6
68873;BME280;55907;50.806;12.882;2023-01-25T06:54:35;989.8;;;1.5;86.4
68873;BME280;55907;50.806;12.882;2023-01-25T06:57:36;989.8;;;1.5;86.3
68873;BME280;55907;50.806;12.882;2023-01-25T07:00:38;989.7;;;1.5;86.3
68873;BME280;55907;50.806;12.882;2023-01-25T07:03:39;989.7;;;1.5;86.4
68873;BME280;55907;50.806;12.882;2023-01-25T07:06:41;989.8;;;1.5;86.4
68873;BME280;55907;50.806;12.882;2023-01-25T07:09:43;989.7;;;1.5;85.9
68873;BME280;55907;50.806;12.882;2023-01-25T07:12:44;989.7;;;1.5;86.3
68873;BME280;55907;50.806;12.882;2023-01-25T07:15:50;989.7;;;1.5;86.2
68873;BME280;55907;50.806;12.882;2023-01-25T07:18:47;989.7;;;1.5;86.4
68873;BME280;55907;50.806;12.882;2023-01-25T07:21:49;989.7;;;1.5;86.0
68873;BME280;55907;50.806;12.882;2023-01-25T07:24:50;989.6;;;1.5;86.0
68873;BME280;55907;50.806;12.882;2023-01-25T07:27:52;989.6;;;1.5;86.2
68873;BME280;55907;50.806;12.882;2023-01-25T07:30:54;989.6;;;1.6;86.0
68873;BME280;55907;50.806;12.882;2023-01-25T07:33:57;989.5;;;1.6;85.9
68873;BME280;55907;50.806;12.882;2023-01-25T07:36:57;989.5;;;1.6;86.1
68873;BME280;55907;50.806;12.882;2023-01-25T07:39:58;989.5;;;1.6;85.8
68873;BME280;55907;50.806;12.882;2023-01-25T07:43:00;989.5;;;1.6;85.9
68873;BME280;55907;50.806;12.882;2023-01-25T07:46:03;989.5;;;1.6;85.1
68873;BME280;55907;50.806;12.882;2023-01-25T07:49:03;989.5;;;1.6;84.9
68873;BME280;55907;50.806;12.882;2023-01-25T07:52:04;989.5;;;1.6;85.5
68873;BME280;55907;50.806;12.882;2023-01-25T07:55:06;989.5;;;1.6;85.6
68873;BME280;55907;50.806;12.882;2023-01-25T07:58:09;989.4;;;1.6;85.7
68873;BME280;55907;50.806;12.882;2023-01-25T08:01:11;989.3;;;1.6;85.3
68873;BME280;55907;50.806;12.882;2023-01-25T08:04:11;989.3;;;1.7;84.7
68873;BME280;55907;50.806;12.882;2023-01-25T08:07:13;989.3;;;1.7;84.7
68873;BME280;55907;50.806;12.882;2023-01-25T08:10:14;989.3;;;1.8;84.7
68873;BME280;55907;50.806;12.882;2023-01-25T08:13:15;989.3;;;1.8;84.7
68873;BME280;55907;50.806;12.882;2023-01-25T08:16:19;989.2;;;1.8;84.6
68873;BME280;55907;50.806;12.882;2023-01-25T08:19:18;989.1;;;1.9;84.3
68873;BME280;55907;50.806;12.882;2023-01-25T08:25:22;989.1;;;2.0;83.3
68873;BME280;55907;50.806;12.882;2023-01-25T08:28:23;989.1;;;2.1;82.9
68873;BME280;55907;50.806;12.882;2023-01-25T08:31:27;989.0;;;2.1;82.5
68873;BME280;55907;50.806;12.882;2023-01-25T08:34:26;989.0;;;2.2;82.1
68873;BME280;55907;50.806;12.882;2023-01-25T08:37:28;989.0;;;2.2;82.4
68873;BME280;55907;50.806;12.882;2023-01-25T08:40:29;988.9;;;2.2;82.4
68873;BME280;55907;50.806;12.882;2023-01-25T08:43:31;988.8;;;2.2;81.5
68873;BME280;55907;50.806;12.882;2023-01-25T08:46:33;988.8;;;2.3;81.7
68873;BME280;55907;50.806;12.882;2023-01-25T08:49:34;988.8;;;2.4;81.6
68873;BME280;55907;50.806;12.882;2023-01-25T08:52:35;988.8;;;2.4;81.4
68873;BME280;55907;50.806;12.882;2023-01-25T08:55:37;988.8;;;2.4;81.3
68873;BME280;55907;50.806;12.882;2023-01-25T08:58:42;988.8;;;2.5;81.3
68873;BME280;55907;50.806;12.882;2023-01-25T09:01:40;988.7;;;2.6;81.5
68873;BME280;55907;50.806;12.882;2023-01-25T09:04:42;988.7;;;2.6;81.3
68873;BME280;55907;50.806;12.882;2023-01-25T09:07:43;988.8;;;2.7;80.6
68873;BME280;55907;50.806;12.882;2023-01-25T09:10:45;988.8;;;2.8;79.9
68873;BME280;55907;50.806;12.882;2023-01-25T09:13:47;988.7;;;2.8;79.8
68873;BME280;55907;50.806;12.882;2023-01-25T09:16:48;988.7;;;2.9;79.4
68873;BME280;55907;50.806;12.882;2023-01-25T09:19:49;988.7;;;3.0;79.1
68873;BME280;55907;50.806;12.882;2023-01-25T09:22:51;988.6;;;3.1;78.8
68873;BME280;55907;50.806;12.882;2023-01-25T09:25:56;988.6;;;3.2;79.4
68873;BME280;55907;50.806;12.882;2023-01-25T09:28:54;988.6;;;3.2;79.3
68873;BME280;55907;50.806;12.882;2023-01-25T09:31:56;988.7;;;3.2;78.8
68873;BME280;55907;50.806;12.882;2023-01-25T09:34:57;988.7;;;3.3;78.9
68873;BME280;55907;50.806;12.882;2023-01-25T09:37:59;988.7;;;3.3;78.4
68873;BME280;55907;50.806;12.882;2023-01-25T09:41:11;988.6;;;3.3;78.2
68873;BME280;55907;50.806;12.882;2023-01-25T09:44:10;988.6;;;3.2;78.0
68873;BME280;55907;50.806;12.882;2023-01-25T09:47:11;988.6;;;3.2;78.1
68873;BME280;55907;50.806;12.882;2023-01-25T09:50:18;988.6;;;3.1;78.3
68873;BME280;55907;50.806;12.882;2023-01-25T09:53:18;988.6;;;3.0;78.6
68873;BME280;55907;50.806;12.882;2023-01-25T09:56:14;988.6;;;3.1;78.0
68873;BME280;55907;50.806;12.882;2023-01-25T09:59:12;988.6;;;3.0;78.2
68873;BME280;55907;50.806;12.882;2023-01-25T10:05:15;988.6;;;3.2;78.6
68873;BME280;55907;50.806;12.882;2023-01-25T10:11:21;988.5;;;3.0;78.8
68873;BME280;55907;50.806;12.882;2023-01-25T10:14:18;988.6;;;3.0;78.4
68873;BME280;55907;50.806;12.882;2023-01-25T10:17:24;988.5;;;3.0;78.7
68873;BME280;55907;50.806;12.882;2023-01-25T10:20:25;988.4;;;3.0;78.7
68873;BME280;55907;50.806;12.882;2023-01-25T10:23:29;988.4;;;3.0;78.7
68873;BME280;55907;50.806;12.882;2023-01-25T10:26:25;988.4;;;3.0;78.5
68873;BME280;55907;50.806;12.882;2023-01-25T10:29:27;988.4;;;3.0;78.9
68873;BME280;55907;50.806;12.882;2023-01-25T10:32:28;988.4;;;3.0;78.7
68873;BME280;55907;50.806;12.882;2023-01-25T10:35:33;988.3;;;3.0;79.0
68873;BME280;55907;50.806;12.882;2023-01-25T10:38:32;988.3;;;2.9;78.3
68873;BME280;55907;50.806;12.882;2023-01-25T10:41:36;988.2;;;3.0;78.6
68873;BME280;55907;50.806;12.882;2023-01-25T10:44:33;988.1;;;3.0;78.8
68873;BME280;55907;50.806;12.882;2023-01-25T10:47:35;988.1;;;3.0;78.5
68873;BME280;55907;50.806;12.882;2023-01-25T10:50:46;988.1;;;3.0;79.5
68873;BME280;55907;50.806;12.882;2023-01-25T10:53:37;988.0;;;3.0;79.6
68873;BME280;55907;50.806;12.882;2023-01-25T10:56:39;988.0;;;3.0;79.4
68873;BME280;55907;50.806;12.882;2023-01-25T10:59:43;987.9;;;3.1;78.9
68873;BME280;55907;50.806;12.882;2023-01-25T11:02:44;987.9;;;3.1;78.6
68873;BME280;55907;50.806;12.882;2023-01-25T11:05:52;987.8;;;3.0;78.2
68873;BME280;55907;50.806;12.882;2023-01-25T11:08:45;987.8;;;3.0;78.4
68873;BME280;55907;50.806;12.882;2023-01-25T11:11:52;987.8;;;3.0;78.7
68873;BME280;55907;50.806;12.882;2023-01-25T11:14:48;987.8;;;3.0;79.0
68873;BME280;55907;50.806;12.882;2023-01-25T11:18:03;987.8;;;3.0;78.5
68873;BME280;55907;50.806;12.882;2023-01-25T11:21:03;987.7;;;3.0;78.5
68873;BME280;55907;50.806;12.882;2023-01-25T11:24:01;987.7;;;3.0;78.9
68873;BME280;55907;50.806;12.882;2023-01-25T11:27:12;987.6;;;2.9;79.0
68873;BME280;55907;50.806;12.882;2023-01-25T11:30:06;987.6;;;2.9;79.1
68873;BME280;55907;50.806;12.882;2023-01-25T11:32:57;987.5;;;2.9;79.4
68873;BME280;55907;50.806;12.882;2023-01-25T11:36:06;987.4;;;2.9;78.7
68873;BME280;55907;50.806;12.882;2023-01-25T11:39:15;987.4;;;3.0;78.5
68873;BME280;55907;50.806;12.882;2023-01-25T11:42:10;987.4;;;3.0;78.2
68873;BME280;55907;50.806;12.882;2023-01-25T11:45:18;987.3;;;3.0;77.8
68873;BME280;55907;50.806;12.882;2023-01-25T11:48:18;987.3;;;3.0;78.2
68873;BME280;55907;50.806;12.882;2023-01-25T11:51:11;987.2;;;3.1;78.1
68873;BME280;55907;50.806;12.882;2023-01-25T11:54:25;987.2;;;3.0;78.8
68873;BME280;55907;50.806;12.882;2023-01-25T11:57:19;987.1;;;3.0;78.2
68873;BME280;55907;50.806;12.882;2023-01-25T12:00:26;987.0;;;2.9;78.7
68873;BME280;55907;50.806;12.882;2023-01-25T12:03:29;986.9;;;2.9;78.6
68873;BME280;55907;50.806;12.882;2023-01-25T12:06:17;986.9;;;2.9;78.5
68873;BME280;55907;50.806;12.882;2023-01-25T12:09:26;986.8;;;2.9;78.3
68873;BME280;55907;50.806;12.882;2023-01-25T12:12:23;986.7;;;2.9;78.6
68873;BME280;55907;50.806;12.882;2023-01-25T12:15:30;986.7;;;2.9;78.7
68873;BME280;55907;50.806;12.882;2023-01-25T12:18:33;986.6;;;3.0;78.7
68873;BME280;55907;50.806;12.882;2023-01-25T12:21:32;986.5;;;3.0;78.4
68873;BME280;55907;50.806;12.882;2023-01-25T12:24:30;986.5;;;3.0;78.5
68873;BME280;55907;50.806;12.882;2023-01-25T12:27:34;986.4;;;3.0;78.2
68873;BME280;55907;50.806;12.882;2023-01-25T12:30:35;986.3;;;3.2;78.1
68873;BME280;55907;50.806;12.882;2023-01-25T12:33:31;986.3;;;3.2;77.7
68873;BME280;55907;50.806;12.882;2023-01-25T12:36:33;986.3;;;3.2;77.6
68873;BME280;55907;50.806;12.882;2023-01-25T12:39:33;986.2;;;3.3;77.7
68873;BME280;55907;50.806;12.882;2023-01-25T12:41:32;unavailable;;;unavailable;unavailable
68873;BME280;55907;50.806;12.882;2023-01-25T12:42:36;986.2;;;3.3;77.7
68873;BME280;55907;50.806;12.882;2023-01-25T12:45:36;986.1;;;3.4;78.0
68873;BME280;55907;50.806;12.882;2023-01-25T12:48:39;986.1;;;3.5;77.8
68873;BME280;55907;50.806;12.882;2023-01-25T12:49:49;unavailable;;;unavailable;unavailable
68873;BME280;55907;50.806;12.882;2023-01-25T12:51:38;986.0;;;3.6;77.3
68873;BME280;55907;50.806;12.882;2023-01-25T12:54:40;986.0;;;3.6;76.8
68873;BME280;55907;50.806;12.882;2023-01-25T12:57:45;985.9;;;3.5;76.7
68873;BME280;55907;50.806;12.882;2023-01-25T13:00:48;985.9;;;3.4;76.5
68873;BME280;55907;50.806;12.882;2023-01-25T13:03:50;985.8;;;3.3;76.9
68873;BME280;55907;50.806;12.882;2023-01-25T13:06:48;985.8;;;3.2;77.3
68873;BME280;55907;50.806;12.882;2023-01-25T13:09:54;985.8;;;3.1;77.4
68873;BME280;55907;50.806;12.882;2023-01-25T13:12:49;985.8;;;3.1;78.0
68873;BME280;55907;50.806;12.882;2023-01-25T13:15:51;985.7;;;3.1;78.0
68873;BME280;55907;50.806;12.882;2023-01-25T13:18:51;985.7;;;3.0;78.3
68873;BME280;55907;50.806;12.882;2023-01-25T13:21:53;985.7;;;3.0;78.2
68873;BME280;55907;50.806;12.882;2023-01-25T13:25:05;985.6;;;2.9;78.7
68873;BME280;55907;50.806;12.882;2023-01-25T13:30:57;985.5;;;2.9;79.0
68873;BME280;55907;50.806;12.882;2023-01-25T13:33:58;985.5;;;2.9;79.3
68873;BME280;55907;50.806;12.882;2023-01-25T13:37:00;985.4;;;2.9;78.7
68873;BME280;55907;50.806;12.882;2023-01-25T13:40:03;985.3;;;2.9;78.4
68873;BME280;55907;50.806;12.882;2023-01-25T13:43:05;985.3;;;2.9;78.6
68873;BME280;55907;50.806;12.882;2023-01-25T13:46:08;985.2;;;2.8;78.9
68873;BME280;55907;50.806;12.882;2023-01-25T13:49:18;985.3;;;2.7;78.8
68873;BME280;55907;50.806;12.882;2023-01-25T13:52:13;985.2;;;2.7;78.9
68873;BME280;55907;50.806;12.882;2023-01-25T13:55:16;985.2;;;2.7;79.2
68873;BME280;55907;50.806;12.882;2023-01-25T13:58:16;985.2;;;2.5;79.5
68873;BME280;55907;50.806;12.882;2023-01-25T14:01:15;985.1;;;2.5;79.5
68873;BME280;55907;50.806;12.882;2023-01-25T14:04:14;985.1;;;2.5;79.6
68873;BME280;55907;50.806;12.882;2023-01-25T14:07:17;985.1;;;2.6;79.8
68873;BME280;55907;50.806;12.882;2023-01-25T14:10:20;985.0;;;2.6;79.6
68873;BME280;55907;50.806;12.882;2023-01-25T14:12:39;unavailable;;;unavailable;unavailable
68873;BME280;55907;50.806;12.882;2023-01-25T14:13:35;unavailable;;;unavailable;unavailable
68873;BME280;55907;50.806;12.882;2023-01-25T14:14:44;unavailable;;;unavailable;unavailable
68873;BME280;55907;50.806;12.882;2023-01-25T14:19:20;984.9;;;2.8;78.6
68873;BME280;55907;50.806;12.882;2023-01-25T14:19:23;984.9;;;2.8;78.6
68873;BME280;55907;50.806;12.882;2023-01-25T14:22:25;984.9;;;2.9;78.2
68873;BME280;55907;50.806;12.882;2023-01-25T14:25:25;984.9;;;2.8;77.3
68873;BME280;55907;50.806;12.882;2023-01-25T14:28:28;984.8;;;2.8;77.8
68873;BME280;55907;50.806;12.882;2023-01-25T14:31:31;984.7;;;2.8;78.2
68873;BME280;55907;50.806;12.882;2023-01-25T14:37:31;984.6;;;2.7;78.8
68873;BME280;55907;50.806;12.882;2023-01-25T14:40:33;984.6;;;2.6;79.3
68873;BME280;55907;50.806;12.882;2023-01-25T14:43:35;984.6;;;2.8;78.8
68873;BME280;55907;50.806;12.882;2023-01-25T14:46:37;984.6;;;2.8;79.2
68873;BME280;55907;50.806;12.882;2023-01-25T14:49:38;984.5;;;2.7;79.1
68873;BME280;55907;50.806;12.882;2023-01-25T14:52:39;984.5;;;2.7;79.3
68873;BME280;55907;50.806;12.882;2023-01-25T14:55:42;984.5;;;2.8;79.1
68873;BME280;55907;50.806;12.882;2023-01-25T14:58:42;984.5;;;2.8;79.4
68873;BME280;55907;50.806;12.882;2023-01-25T15:01:43;984.5;;;2.8;79.8
68873;BME280;55907;50.806;12.882;2023-01-25T15:04:54;984.4;;;2.8;80.3
68873;BME280;55907;50.806;12.882;2023-01-25T15:07:48;984.4;;;2.8;80.7
68873;BME280;55907;50.806;12.882;2023-01-25T15:10:50;984.3;;;2.7;80.6
68873;BME280;55907;50.806;12.882;2023-01-25T15:14:00;984.3;;;2.6;80.9
68873;BME280;55907;50.806;12.882;2023-01-25T15:16:51;984.3;;;2.5;80.7
68873;BME280;55907;50.806;12.882;2023-01-25T15:19:53;984.2;;;2.4;80.6
68873;BME280;55907;50.806;12.882;2023-01-25T15:22:55;984.2;;;2.4;79.9
68873;BME280;55907;50.806;12.882;2023-01-25T15:25:57;984.1;;;2.3;80.5
68873;BME280;55907;50.806;12.882;2023-01-25T15:28:59;984.1;;;2.3;80.7
68873;BME280;55907;50.806;12.882;2023-01-25T15:31:59;984.1;;;2.3;81.3
68873;BME280;55907;50.806;12.882;2023-01-25T15:35:01;984.0;;;2.3;81.8
68873;BME280;55907;50.806;12.882;2023-01-25T15:38:02;984.0;;;2.3;82.4
68873;BME280;55907;50.806;12.882;2023-01-25T15:41:04;984.0;;;2.2;82.0
68873;BME280;55907;50.806;12.882;2023-01-25T15:44:05;983.9;;;2.2;82.3
68873;BME280;55907;50.806;12.882;2023-01-25T15:47:08;984.0;;;2.1;82.5
68873;BME280;55907;50.806;12.882;2023-01-25T15:50:16;983.9;;;2.0;82.4
68873;BME280;55907;50.806;12.882;2023-01-25T15:53:12;983.9;;;2.0;82.7
68873;BME280;55907;50.806;12.882;2023-01-25T15:56:13;983.9;;;2.0;83.2
68873;BME280;55907;50.806;12.882;2023-01-25T15:59:15;983.9;;;2.0;83.4
68873;BME280;55907;50.806;12.882;2023-01-25T16:02:17;983.8;;;2.0;83.0
68873;BME280;55907;50.806;12.882;2023-01-25T16:03:58;unavailable;;;unavailable;unavailable
68873;BME280;55907;50.806;12.882;2023-01-25T16:08:18;983.8;;;1.8;83.9
68873;BME280;55907;50.806;12.882;2023-01-25T16:11:19;983.8;;;1.9;84.4
68873;BME280;55907;50.806;12.882;2023-01-25T16:14:22;983.8;;;1.9;84.4
68873;BME280;55907;50.806;12.882;2023-01-25T16:17:22;983.7;;;1.9;84.7
68873;BME280;55907;50.806;12.882;2023-01-25T16:20:24;983.6;;;1.8;85.0
68873;BME280;55907;50.806;12.882;2023-01-25T16:23:25;983.6;;;1.8;85.3
68873;BME280;55907;50.806;12.882;2023-01-25T16:26:27;983.5;;;1.8;85.4
68873;BME280;55907;50.806;12.882;2023-01-25T16:29:29;983.5;;;1.8;84.9
68873;BME280;55907;50.806;12.882;2023-01-25T16:32:30;983.5;;;1.8;84.4
68873;BME280;55907;50.806;12.882;2023-01-25T16:35:32;983.4;;;1.7;84.5
68873;BME280;55907;50.806;12.882;2023-01-25T16:38:33;983.3;;;1.8;84.2
68873;BME280;55907;50.806;12.882;2023-01-25T16:41:35;983.3;;;1.8;84.6
68873;BME280;55907;50.806;12.882;2023-01-25T16:44:37;983.3;;;1.8;84.8
68873;BME280;55907;50.806;12.882;2023-01-25T16:47:38;983.2;;;1.9;84.8
68873;BME280;55907;50.806;12.882;2023-01-25T16:50:40;983.2;;;2.0;84.4
68873;BME280;55907;50.806;12.882;2023-01-25T16:53:42;983.2;;;2.0;84.5
68873;BME280;55907;50.806;12.882;2023-01-25T16:56:43;983.2;;;2.1;84.4
68873;BME280;55907;50.806;12.882;2023-01-25T16:59:44;983.1;;;2.0;84.2
68873;BME280;55907;50.806;12.882;2023-01-25T17:05:48;983.1;;;1.9;84.6
68873;BME280;55907;50.806;12.882;2023-01-25T17:08:50;983.0;;;1.8;85.3
68873;BME280;55907;50.806;12.882;2023-01-25T17:11:51;983.0;;;1.8;85.2
68873;BME280;55907;50.806;12.882;2023-01-25T17:14:52;983.0;;;1.8;84.9